sensor_id;sensor_type;location;lat;lon;timestamp;P1;durP1;ratioP1;P2;durP2;ratioP2
41927;SDS011;27616;51.420;6.788;2024-02-16T00:00:39;2.20;;;1.20;;
41927;SDS011;27616;51.420;6.788;2024-02-16T00:03:09;1.70;;;1.15;;
41927;SDS011;27616;51.420;6.788;2024-02-16T00:05:35;1.42;;;0.70;;
41927;SDS011;27616;51.420;6.788;2024-02-16T00:08:01;4.00;;;1.05;;
41927;SDS011;27616;51.420;6.788;2024-02-16T00:10:28;2.17;;;0.75;;
41927;SDS011;27616;51.420;6.788;2024-02-16T00:12:54;1.27;;;0.80;;
41927;SDS011;27616;51.420;6.788;2024-02-16T00:15:19;3.42;;;1.20;;
41927;SDS011;27616;51.420;6.788;2024-02-16T00:17:45;2.47;;;0.93;;
41927;SDS011;27616;51.420;6.788;2024-02-16T00:20:11;3.35;;;1.38;;
41927;SDS011;27616;51.420;6.788;2024-02-16T00:22:40;3.28;;;0.90;;
41927;SDS011;27616;51.420;6.788;2024-02-16T00:25:06;2.60;;;1.02;;
41927;SDS011;27616;51.420;6.788;2024-02-16T00:27:32;2.72;;;0.98;;
41927;SDS011;27616;51.420;6.788;2024-02-16T00:29:57;3.08;;;1.00;;
41927;SDS011;27616;51.420;6.788;2024-02-16T00:32:23;3.35;;;1.20;;
41927;SDS011;27616;51.420;6.788;2024-02-16T00:34:54;2.25;;;0.90;;
41927;SDS011;27616;51.420;6.788;2024-02-16T00:37:20;1.92;;;0.98;;
41927;SDS011;27616;51.420;6.788;2024-02-16T00:39:46;1.13;;;0.63;;
41927;SDS011;27616;51.420;6.788;2024-02-16T00:42:11;1.73;;;0.80;;
41927;SDS011;27616;51.420;6.788;2024-02-16T00:44:37;3.25;;;1.02;;
41927;SDS011;27616;51.420;6.788;2024-02-16T00:47:03;1.50;;;0.80;;
41927;SDS011;27616;51.420;6.788;2024-02-16T00:49:34;4.57;;;1.42;;
41927;SDS011;27616;51.420;6.788;2024-02-16T00:52:00;3.58;;;0.80;;
41927;SDS011;27616;51.420;6.788;2024-02-16T00:54:27;4.60;;;1.30;;
41927;SDS011;27616;51.420;6.788;2024-02-16T00:56:52;4.30;;;0.90;;
41927;SDS011;27616;51.420;6.788;2024-02-16T00:59:19;4.25;;;1.50;;
41927;SDS011;27616;51.420;6.788;2024-02-16T01:01:46;3.08;;;1.00;;
41927;SDS011;27616;51.420;6.788;2024-02-16T01:04:12;2.83;;;1.00;;
41927;SDS011;27616;51.420;6.788;2024-02-16T01:06:37;5.57;;;1.23;;
41927;SDS011;27616;51.420;6.788;2024-02-16T01:09:03;2.17;;;0.73;;
41927;SDS011;27616;51.420;6.788;2024-02-16T01:11:29;2.33;;;0.98;;
41927;SDS011;27616;51.420;6.788;2024-02-16T01:13:55;3.03;;;1.00;;
41927;SDS011;27616;51.420;6.788;2024-02-16T01:16:21;2.63;;;1.10;;
41927;SDS011;27616;51.420;6.788;2024-02-16T01:18:46;2.38;;;0.98;;
41927;SDS011;27616;51.420;6.788;2024-02-16T01:21:12;2.17;;;1.00;;
41927;SDS011;27616;51.420;6.788;2024-02-16T01:23:37;1.58;;;0.90;;
41927;SDS011;27616;51.420;6.788;2024-02-16T01:26:03;2.67;;;1.10;;
41927;SDS011;27616;51.420;6.788;2024-02-16T01:28:29;2.78;;;1.02;;
41927;SDS011;27616;51.420;6.788;2024-02-16T01:30:54;1.88;;;0.93;;
41927;SDS011;27616;51.420;6.788;2024-02-16T01:33:21;2.15;;;1.15;;
41927;SDS011;27616;51.420;6.788;2024-02-16T01:35:47;2.03;;;1.13;;
41927;SDS011;27616;51.420;6.788;2024-02-16T01:38:13;2.22;;;1.10;;
41927;SDS011;27616;51.420;6.788;2024-02-16T01:40:39;2.50;;;0.93;;
41927;SDS011;27616;51.420;6.788;2024-02-16T01:43:05;2.65;;;1.10;;
41927;SDS011;27616;51.420;6.788;2024-02-16T01:45:30;3.00;;;1.08;;
41927;SDS011;27616;51.420;6.788;2024-02-16T01:47:56;2.58;;;0.88;;
41927;SDS011;27616;51.420;6.788;2024-02-16T01:50:22;2.30;;;1.00;;
41927;SDS011;27616;51.420;6.788;2024-02-16T01:52:48;2.70;;;0.98;;
41927;SDS011;27616;51.420;6.788;2024-02-16T01:55:15;3.10;;;1.10;;
41927;SDS011;27616;51.420;6.788;2024-02-16T01:57:45;1.88;;;1.00;;
41927;SDS011;27616;51.420;6.788;2024-02-16T02:00:12;2.53;;;0.98;;
41927;SDS011;27616;51.420;6.788;2024-02-16T02:02:46;2.25;;;1.00;;
41927;SDS011;27616;51.420;6.788;2024-02-16T02:05:12;3.42;;;1.17;;
41927;SDS011;27616;51.420;6.788;2024-02-16T02:07:39;3.63;;;1.30;;
41927;SDS011;27616;51.420;6.788;2024-02-16T02:10:05;1.67;;;0.70;;
41927;SDS011;27616;51.420;6.788;2024-02-16T02:12:31;1.77;;;0.80;;
41927;SDS011;27616;51.420;6.788;2024-02-16T02:14:57;2.33;;;1.00;;
41927;SDS011;27616;51.420;6.788;2024-02-16T02:17:23;2.92;;;0.90;;
41927;SDS011;27616;51.420;6.788;2024-02-16T02:19:48;1.92;;;0.93;;
41927;SDS011;27616;51.420;6.788;2024-02-16T02:22:20;4.03;;;1.13;;
41927;SDS011;27616;51.420;6.788;2024-02-16T02:24:46;3.88;;;1.45;;
41927;SDS011;27616;51.420;6.788;2024-02-16T02:27:14;2.92;;;1.02;;
41927;SDS011;27616;51.420;6.788;2024-02-16T02:29:40;2.95;;;1.02;;
41927;SDS011;27616;51.420;6.788;2024-02-16T02:32:07;2.67;;;0.90;;
41927;SDS011;27616;51.420;6.788;2024-02-16T02:34:33;3.55;;;1.30;;
41927;SDS011;27616;51.420;6.788;2024-02-16T02:36:59;2.83;;;1.30;;
41927;SDS011;27616;51.420;6.788;2024-02-16T02:39:25;3.30;;;1.17;;
41927;SDS011;27616;51.420;6.788;2024-02-16T02:41:50;3.03;;;1.10;;
41927;SDS011;27616;51.420;6.788;2024-02-16T02:44:16;3.00;;;1.00;;
41927;SDS011;27616;51.420;6.788;2024-02-16T02:46:42;3.60;;;1.10;;
41927;SDS011;27616;51.420;6.788;2024-02-16T02:49:08;3.13;;;0.95;;
41927;SDS011;27616;51.420;6.788;2024-02-16T02:51:33;1.33;;;0.90;;
41927;SDS011;27616;51.420;6.788;2024-02-16T02:53:59;1.55;;;0.82;;
41927;SDS011;27616;51.420;6.788;2024-02-16T02:56:24;2.70;;;1.05;;
41927;SDS011;27616;51.420;6.788;2024-02-16T02:58:50;3.50;;;1.33;;
41927;SDS011;27616;51.420;6.788;2024-02-16T03:01:16;2.85;;;1.00;;
41927;SDS011;27616;51.420;6.788;2024-02-16T03:03:44;2.65;;;1.02;;
41927;SDS011;27616;51.420;6.788;2024-02-16T03:06:10;4.32;;;1.20;;
41927;SDS011;27616;51.420;6.788;2024-02-16T03:08:35;2.92;;;1.15;;
41927;SDS011;27616;51.420;6.788;2024-02-16T03:11:01;2.03;;;0.95;;
41927;SDS011;27616;51.420;6.788;2024-02-16T03:13:29;7.53;;;2.25;;
41927;SDS011;27616;51.420;6.788;2024-02-16T03:15:54;3.00;;;1.10;;
41927;SDS011;27616;51.420;6.788;2024-02-16T03:18:20;2.25;;;0.93;;
41927;SDS011;27616;51.420;6.788;2024-02-16T03:20:46;2.40;;;1.08;;
41927;SDS011;27616;51.420;6.788;2024-02-16T03:23:14;3.42;;;1.55;;
41927;SDS011;27616;51.420;6.788;2024-02-16T03:25:40;1.77;;;0.98;;
41927;SDS011;27616;51.420;6.788;2024-02-16T03:28:07;2.22;;;1.10;;
41927;SDS011;27616;51.420;6.788;2024-02-16T03:30:35;3.47;;;1.48;;
41927;SDS011;27616;51.420;6.788;2024-02-16T03:33:00;2.05;;;1.05;;
41927;SDS011;27616;51.420;6.788;2024-02-16T03:35:26;3.22;;;1.00;;
41927;SDS011;27616;51.420;6.788;2024-02-16T03:37:52;4.50;;;1.00;;
41927;SDS011;27616;51.420;6.788;2024-02-16T03:40:18;2.53;;;1.10;;
41927;SDS011;27616;51.420;6.788;2024-02-16T03:42:44;2.28;;;0.90;;
41927;SDS011;27616;51.420;6.788;2024-02-16T03:45:09;2.67;;;1.13;;
41927;SDS011;27616;51.420;6.788;2024-02-16T03:47:36;2.17;;;1.00;;
41927;SDS011;27616;51.420;6.788;2024-02-16T03:50:02;2.85;;;1.17;;
41927;SDS011;27616;51.420;6.788;2024-02-16T03:52:28;1.67;;;0.80;;
41927;SDS011;27616;51.420;6.788;2024-02-16T03:54:54;4.03;;;1.20;;
41927;SDS011;27616;51.420;6.788;2024-02-16T03:57:19;4.43;;;1.35;;
41927;SDS011;27616;51.420;6.788;2024-02-16T03:59:45;4.35;;;1.20;;
41927;SDS011;27616;51.420;6.788;2024-02-16T04:02:11;3.05;;;1.10;;
41927;SDS011;27616;51.420;6.788;2024-02-16T04:04:40;3.42;;;0.88;;
41927;SDS011;27616;51.420;6.788;2024-02-16T04:07:06;2.08;;;1.00;;
41927;SDS011;27616;51.420;6.788;2024-02-16T04:09:32;2.45;;;1.10;;
41927;SDS011;27616;51.420;6.788;2024-02-16T04:11:58;2.95;;;1.30;;
41927;SDS011;27616;51.420;6.788;2024-02-16T04:14:23;2.78;;;0.98;;
41927;SDS011;27616;51.420;6.788;2024-02-16T04:16:49;2.90;;;1.02;;
41927;SDS011;27616;51.420;6.788;2024-02-16T04:19:15;2.38;;;1.10;;
41927;SDS011;27616;51.420;6.788;2024-02-16T04:21:40;2.63;;;1.33;;
41927;SDS011;27616;51.420;6.788;2024-02-16T04:24:06;2.38;;;1.08;;
41927;SDS011;27616;51.420;6.788;2024-02-16T04:26:34;3.15;;;1.20;;
41927;SDS011;27616;51.420;6.788;2024-02-16T04:28:59;2.92;;;1.35;;
41927;SDS011;27616;51.420;6.788;2024-02-16T04:31:25;7.10;;;1.23;;
41927;SDS011;27616;51.420;6.788;2024-02-16T04:33:50;4.35;;;1.25;;
41927;SDS011;27616;51.420;6.788;2024-02-16T04:36:16;2.47;;;1.20;;
41927;SDS011;27616;51.420;6.788;2024-02-16T04:38:42;2.10;;;1.10;;
41927;SDS011;27616;51.420;6.788;2024-02-16T04:41:08;2.33;;;1.02;;
41927;SDS011;27616;51.420;6.788;2024-02-16T04:43:33;3.20;;;1.27;;
41927;SDS011;27616;51.420;6.788;2024-02-16T04:45:59;2.15;;;1.10;;
41927;SDS011;27616;51.420;6.788;2024-02-16T04:48:25;4.55;;;1.13;;
41927;SDS011;27616;51.420;6.788;2024-02-16T04:50:51;2.35;;;1.02;;
41927;SDS011;27616;51.420;6.788;2024-02-16T04:53:16;4.95;;;1.30;;
41927;SDS011;27616;51.420;6.788;2024-02-16T04:55:42;2.58;;;1.20;;
41927;SDS011;27616;51.420;6.788;2024-02-16T04:58:08;1.73;;;1.10;;
41927;SDS011;27616;51.420;6.788;2024-02-16T05:00:35;4.63;;;1.13;;
41927;SDS011;27616;51.420;6.788;2024-02-16T05:03:02;3.05;;;1.25;;
41927;SDS011;27616;51.420;6.788;2024-02-16T05:05:28;1.85;;;1.00;;
41927;SDS011;27616;51.420;6.788;2024-02-16T05:07:53;3.78;;;1.00;;
41927;SDS011;27616;51.420;6.788;2024-02-16T05:10:19;5.50;;;1.20;;
41927;SDS011;27616;51.420;6.788;2024-02-16T05:12:45;4.18;;;1.10;;
41927;SDS011;27616;51.420;6.788;2024-02-16T05:15:10;2.42;;;1.05;;
41927;SDS011;27616;51.420;6.788;2024-02-16T05:17:39;2.83;;;1.23;;
41927;SDS011;27616;51.420;6.788;2024-02-16T05:20:14;2.10;;;1.02;;
41927;SDS011;27616;51.420;6.788;2024-02-16T05:22:44;5.97;;;1.35;;
41927;SDS011;27616;51.420;6.788;2024-02-16T05:25:13;2.17;;;1.63;;
41927;SDS011;27616;51.420;6.788;2024-02-16T05:27:40;3.97;;;1.40;;
41927;SDS011;27616;51.420;6.788;2024-02-16T05:30:06;1.95;;;1.05;;
41927;SDS011;27616;51.420;6.788;2024-02-16T05:32:35;1.95;;;0.90;;
41927;SDS011;27616;51.420;6.788;2024-02-16T05:35:02;4.82;;;1.10;;
41927;SDS011;27616;51.420;6.788;2024-02-16T05:37:41;2.85;;;1.20;;
41927;SDS011;27616;51.420;6.788;2024-02-16T05:40:16;3.80;;;1.27;;
41927;SDS011;27616;51.420;6.788;2024-02-16T05:42:55;2.97;;;1.38;;
41927;SDS011;27616;51.420;6.788;2024-02-16T05:45:24;2.97;;;0.95;;
41927;SDS011;27616;51.420;6.788;2024-02-16T05:47:53;4.50;;;1.35;;
41927;SDS011;27616;51.420;6.788;2024-02-16T05:50:19;4.82;;;1.35;;
41927;SDS011;27616;51.420;6.788;2024-02-16T05:52:46;2.90;;;1.30;;
41927;SDS011;27616;51.420;6.788;2024-02-16T05:55:12;2.95;;;1.38;;
41927;SDS011;27616;51.420;6.788;2024-02-16T05:57:38;3.28;;;1.02;;
41927;SDS011;27616;51.420;6.788;2024-02-16T06:00:04;2.42;;;1.20;;
41927;SDS011;27616;51.420;6.788;2024-02-16T06:02:31;2.70;;;1.25;;
41927;SDS011;27616;51.420;6.788;2024-02-16T06:04:57;6.03;;;1.35;;
41927;SDS011;27616;51.420;6.788;2024-02-16T06:07:23;4.13;;;1.23;;
41927;SDS011;27616;51.420;6.788;2024-02-16T06:09:48;4.30;;;1.40;;
41927;SDS011;27616;51.420;6.788;2024-02-16T06:12:14;3.05;;;1.42;;
41927;SDS011;27616;51.420;6.788;2024-02-16T06:14:41;5.55;;;1.50;;
41927;SDS011;27616;51.420;6.788;2024-02-16T06:17:07;4.78;;;1.38;;
41927;SDS011;27616;51.420;6.788;2024-02-16T06:19:33;3.00;;;1.40;;
41927;SDS011;27616;51.420;6.788;2024-02-16T06:21:59;3.33;;;1.20;;
41927;SDS011;27616;51.420;6.788;2024-02-16T06:24:24;1.95;;;1.10;;
41927;SDS011;27616;51.420;6.788;2024-02-16T06:26:50;4.13;;;1.50;;
41927;SDS011;27616;51.420;6.788;2024-02-16T06:29:19;3.97;;;1.50;;
41927;SDS011;27616;51.420;6.788;2024-02-16T06:31:46;2.92;;;1.20;;
41927;SDS011;27616;51.420;6.788;2024-02-16T06:34:15;5.97;;;1.48;;
41927;SDS011;27616;51.420;6.788;2024-02-16T06:36:41;2.97;;;1.48;;
41927;SDS011;27616;51.420;6.788;2024-02-16T06:39:07;6.05;;;1.60;;
41927;SDS011;27616;51.420;6.788;2024-02-16T06:41:34;3.75;;;1.38;;
41927;SDS011;27616;51.420;6.788;2024-02-16T06:44:00;6.15;;;2.08;;
41927;SDS011;27616;51.420;6.788;2024-02-16T06:46:25;5.35;;;1.80;;
41927;SDS011;27616;51.420;6.788;2024-02-16T06:48:52;2.97;;;1.30;;
41927;SDS011;27616;51.420;6.788;2024-02-16T06:51:21;3.85;;;1.58;;
41927;SDS011;27616;51.420;6.788;2024-02-16T06:53:51;3.80;;;1.35;;
41927;SDS011;27616;51.420;6.788;2024-02-16T06:56:17;3.75;;;1.40;;
41927;SDS011;27616;51.420;6.788;2024-02-16T06:58:43;4.18;;;1.10;;
41927;SDS011;27616;51.420;6.788;2024-02-16T07:01:10;6.10;;;1.70;;
41927;SDS011;27616;51.420;6.788;2024-02-16T07:03:37;3.42;;;1.60;;
41927;SDS011;27616;51.420;6.788;2024-02-16T07:06:03;4.05;;;2.03;;
41927;SDS011;27616;51.420;6.788;2024-02-16T07:08:29;3.13;;;1.23;;
41927;SDS011;27616;51.420;6.788;2024-02-16T07:10:55;3.20;;;1.65;;
41927;SDS011;27616;51.420;6.788;2024-02-16T07:13:22;3.33;;;1.50;;
41927;SDS011;27616;51.420;6.788;2024-02-16T07:15:47;3.67;;;1.48;;
41927;SDS011;27616;51.420;6.788;2024-02-16T07:18:13;3.65;;;1.40;;
41927;SDS011;27616;51.420;6.788;2024-02-16T07:20:40;2.63;;;1.25;;
41927;SDS011;27616;51.420;6.788;2024-02-16T07:23:05;3.40;;;1.23;;
41927;SDS011;27616;51.420;6.788;2024-02-16T07:25:31;2.72;;;1.30;;
41927;SDS011;27616;51.420;6.788;2024-02-16T07:27:57;5.13;;;1.45;;
41927;SDS011;27616;51.420;6.788;2024-02-16T07:30:22;4.47;;;1.35;;
41927;SDS011;27616;51.420;6.788;2024-02-16T07:32:51;3.85;;;1.25;;
41927;SDS011;27616;51.420;6.788;2024-02-16T07:35:17;3.25;;;1.20;;
41927;SDS011;27616;51.420;6.788;2024-02-16T07:37:43;2.03;;;1.10;;
41927;SDS011;27616;51.420;6.788;2024-02-16T07:40:09;2.45;;;1.20;;
41927;SDS011;27616;51.420;6.788;2024-02-16T07:42:41;3.65;;;1.73;;
41927;SDS011;27616;51.420;6.788;2024-02-16T07:45:07;2.40;;;1.40;;
41927;SDS011;27616;51.420;6.788;2024-02-16T07:47:35;4.00;;;1.73;;
41927;SDS011;27616;51.420;6.788;2024-02-16T07:50:00;5.20;;;1.35;;
41927;SDS011;27616;51.420;6.788;2024-02-16T07:52:26;4.50;;;1.50;;
41927;SDS011;27616;51.420;6.788;2024-02-16T07:54:52;4.30;;;1.40;;
41927;SDS011;27616;51.420;6.788;2024-02-16T07:57:17;3.83;;;1.60;;
41927;SDS011;27616;51.420;6.788;2024-02-16T07:59:43;5.45;;;1.83;;
41927;SDS011;27616;51.420;6.788;2024-02-16T08:02:09;2.42;;;1.10;;
41927;SDS011;27616;51.420;6.788;2024-02-16T08:04:35;4.93;;;1.70;;
41927;SDS011;27616;51.420;6.788;2024-02-16T08:07:00;3.45;;;1.30;;
41927;SDS011;27616;51.420;6.788;2024-02-16T08:09:27;4.10;;;1.98;;
41927;SDS011;27616;51.420;6.788;2024-02-16T08:11:52;2.15;;;1.30;;
41927;SDS011;27616;51.420;6.788;2024-02-16T08:14:18;4.25;;;1.35;;
41927;SDS011;27616;51.420;6.788;2024-02-16T08:16:44;5.82;;;2.53;;
41927;SDS011;27616;51.420;6.788;2024-02-16T08:19:10;3.60;;;1.80;;
41927;SDS011;27616;51.420;6.788;2024-02-16T08:21:35;8.25;;;3.55;;
41927;SDS011;27616;51.420;6.788;2024-02-16T08:24:01;4.30;;;1.30;;
41927;SDS011;27616;51.420;6.788;2024-02-16T08:26:26;2.92;;;1.40;;
41927;SDS011;27616;51.420;6.788;2024-02-16T08:28:52;4.90;;;1.90;;
41927;SDS011;27616;51.420;6.788;2024-02-16T08:31:18;4.18;;;1.67;;
41927;SDS011;27616;51.420;6.788;2024-02-16T08:33:44;2.65;;;1.27;;
41927;SDS011;27616;51.420;6.788;2024-02-16T08:36:11;4.35;;;1.85;;
41927;SDS011;27616;51.420;6.788;2024-02-16T08:38:37;4.22;;;1.60;;
41927;SDS011;27616;51.420;6.788;2024-02-16T08:41:03;4.00;;;1.55;;
41927;SDS011;27616;51.420;6.788;2024-02-16T08:43:28;5.55;;;1.52;;
41927;SDS011;27616;51.420;6.788;2024-02-16T08:45:54;8.10;;;1.85;;
41927;SDS011;27616;51.420;6.788;2024-02-16T08:48:19;8.43;;;1.70;;
41927;SDS011;27616;51.420;6.788;2024-02-16T08:50:45;3.13;;;1.45;;
41927;SDS011;27616;51.420;6.788;2024-02-16T08:53:11;3.83;;;1.38;;
41927;SDS011;27616;51.420;6.788;2024-02-16T08:55:36;4.18;;;1.55;;
41927;SDS011;27616;51.420;6.788;2024-02-16T08:58:02;4.32;;;1.67;;
41927;SDS011;27616;51.420;6.788;2024-02-16T09:00:28;3.72;;;1.55;;
41927;SDS011;27616;51.420;6.788;2024-02-16T09:02:53;4.35;;;1.70;;
41927;SDS011;27616;51.420;6.788;2024-02-16T09:05:20;4.57;;;1.48;;
41927;SDS011;27616;51.420;6.788;2024-02-16T09:07:45;3.85;;;1.60;;
41927;SDS011;27616;51.420;6.788;2024-02-16T09:10:14;6.05;;;1.60;;
41927;SDS011;27616;51.420;6.788;2024-02-16T09:12:40;3.20;;;1.38;;
41927;SDS011;27616;51.420;6.788;2024-02-16T09:15:06;4.45;;;1.63;;
41927;SDS011;27616;51.420;6.788;2024-02-16T09:17:32;4.00;;;1.88;;
41927;SDS011;27616;51.420;6.788;2024-02-16T09:19:57;5.25;;;1.70;;
41927;SDS011;27616;51.420;6.788;2024-02-16T09:22:23;6.85;;;1.98;;
41927;SDS011;27616;51.420;6.788;2024-02-16T09:24:48;4.32;;;1.80;;
41927;SDS011;27616;51.420;6.788;2024-02-16T09:27:14;3.72;;;1.80;;
41927;SDS011;27616;51.420;6.788;2024-02-16T09:29:40;3.92;;;1.70;;
41927;SDS011;27616;51.420;6.788;2024-02-16T09:32:05;4.60;;;2.00;;
41927;SDS011;27616;51.420;6.788;2024-02-16T09:34:31;8.30;;;2.25;;
41927;SDS011;27616;51.420;6.788;2024-02-16T09:36:57;3.67;;;1.95;;
41927;SDS011;27616;51.420;6.788;2024-02-16T09:39:22;7.00;;;1.73;;
41927;SDS011;27616;51.420;6.788;2024-02-16T09:41:49;5.68;;;1.88;;
41927;SDS011;27616;51.420;6.788;2024-02-16T09:44:19;3.67;;;1.73;;
41927;SDS011;27616;51.420;6.788;2024-02-16T09:46:46;6.82;;;1.63;;
41927;SDS011;27616;51.420;6.788;2024-02-16T09:49:11;8.02;;;2.35;;
41927;SDS011;27616;51.420;6.788;2024-02-16T09:51:37;4.30;;;1.42;;
41927;SDS011;27616;51.420;6.788;2024-02-16T09:54:03;4.63;;;2.22;;
41927;SDS011;27616;51.420;6.788;2024-02-16T09:56:29;4.00;;;1.52;;
41927;SDS011;27616;51.420;6.788;2024-02-16T09:58:55;5.07;;;1.60;;
41927;SDS011;27616;51.420;6.788;2024-02-16T10:01:21;3.38;;;1.50;;
41927;SDS011;27616;51.420;6.788;2024-02-16T10:03:48;5.45;;;1.98;;
41927;SDS011;27616;51.420;6.788;2024-02-16T10:06:14;6.38;;;2.03;;
41927;SDS011;27616;51.420;6.788;2024-02-16T10:08:51;2.90;;;1.35;;
41927;SDS011;27616;51.420;6.788;2024-02-16T10:11:23;5.90;;;2.35;;
41927;SDS011;27616;51.420;6.788;2024-02-16T10:13:53;4.82;;;1.67;;
41927;SDS011;27616;51.420;6.788;2024-02-16T10:16:23;5.72;;;1.98;;
41927;SDS011;27616;51.420;6.788;2024-02-16T10:18:49;6.97;;;1.88;;
41927;SDS011;27616;51.420;6.788;2024-02-16T10:21:29;2.97;;;1.48;;
41927;SDS011;27616;51.420;6.788;2024-02-16T10:24:05;5.10;;;1.92;;
41927;SDS011;27616;51.420;6.788;2024-02-16T10:26:33;4.47;;;1.80;;
41927;SDS011;27616;51.420;6.788;2024-02-16T10:29:02;4.80;;;1.75;;
41927;SDS011;27616;51.420;6.788;2024-02-16T10:31:29;3.25;;;1.67;;
41927;SDS011;27616;51.420;6.788;2024-02-16T10:34:03;4.70;;;1.75;;
41927;SDS011;27616;51.420;6.788;2024-02-16T10:36:33;6.15;;;1.70;;
41927;SDS011;27616;51.420;6.788;2024-02-16T10:39:00;4.78;;;1.90;;
41927;SDS011;27616;51.420;6.788;2024-02-16T10:41:34;5.00;;;1.83;;
41927;SDS011;27616;51.420;6.788;2024-02-16T10:44:01;6.35;;;1.88;;
41927;SDS011;27616;51.420;6.788;2024-02-16T10:46:29;4.20;;;1.40;;
41927;SDS011;27616;51.420;6.788;2024-02-16T10:48:55;3.95;;;1.95;;
41927;SDS011;27616;51.420;6.788;2024-02-16T10:51:23;4.68;;;2.13;;
41927;SDS011;27616;51.420;6.788;2024-02-16T10:53:56;8.38;;;2.40;;
41927;SDS011;27616;51.420;6.788;2024-02-16T10:56:37;5.15;;;2.00;;
41927;SDS011;27616;51.420;6.788;2024-02-16T10:59:05;7.82;;;2.30;;
41927;SDS011;27616;51.420;6.788;2024-02-16T11:01:40;5.65;;;1.95;;
41927;SDS011;27616;51.420;6.788;2024-02-16T11:04:09;8.57;;;3.13;;
41927;SDS011;27616;51.420;6.788;2024-02-16T11:06:46;4.78;;;2.10;;
41927;SDS011;27616;51.420;6.788;2024-02-16T11:09:25;4.43;;;2.20;;
41927;SDS011;27616;51.420;6.788;2024-02-16T11:11:53;6.90;;;3.28;;
41927;SDS011;27616;51.420;6.788;2024-02-16T11:14:23;7.57;;;2.50;;
41927;SDS011;27616;51.420;6.788;2024-02-16T11:16:58;5.75;;;2.42;;
41927;SDS011;27616;51.420;6.788;2024-02-16T11:19:24;9.13;;;2.70;;
41927;SDS011;27616;51.420;6.788;2024-02-16T11:21:56;9.07;;;3.53;;
41927;SDS011;27616;51.420;6.788;2024-02-16T11:24:32;9.13;;;3.67;;
41927;SDS011;27616;51.420;6.788;2024-02-16T11:26:58;7.72;;;2.67;;
41927;SDS011;27616;51.420;6.788;2024-02-16T11:29:26;9.52;;;3.38;;
41927;SDS011;27616;51.420;6.788;2024-02-16T11:31:55;11.82;;;3.60;;
41927;SDS011;27616;51.420;6.788;2024-02-16T11:34:22;11.57;;;3.58;;
41927;SDS011;27616;51.420;6.788;2024-02-16T11:36:51;9.10;;;3.80;;
41927;SDS011;27616;51.420;6.788;2024-02-16T11:39:21;12.60;;;3.80;;
41927;SDS011;27616;51.420;6.788;2024-02-16T11:41:47;9.93;;;4.32;;
41927;SDS011;27616;51.420;6.788;2024-02-16T11:44:13;7.72;;;3.33;;
41927;SDS011;27616;51.420;6.788;2024-02-16T11:46:42;8.35;;;3.25;;
41927;SDS011;27616;51.420;6.788;2024-02-16T11:49:08;9.48;;;3.42;;
41927;SDS011;27616;51.420;6.788;2024-02-16T11:51:35;9.45;;;3.85;;
41927;SDS011;27616;51.420;6.788;2024-02-16T11:54:01;6.85;;;2.60;;
41927;SDS011;27616;51.420;6.788;2024-02-16T11:56:26;6.78;;;2.63;;
41927;SDS011;27616;51.420;6.788;2024-02-16T11:58:53;10.88;;;2.85;;
41927;SDS011;27616;51.420;6.788;2024-02-16T12:01:20;6.63;;;2.15;;
41927;SDS011;27616;51.420;6.788;2024-02-16T12:03:46;6.78;;;2.55;;
41927;SDS011;27616;51.420;6.788;2024-02-16T12:06:19;6.05;;;2.47;;
41927;SDS011;27616;51.420;6.788;2024-02-16T12:08:46;7.13;;;2.58;;
41927;SDS011;27616;51.420;6.788;2024-02-16T12:11:12;9.82;;;2.47;;
41927;SDS011;27616;51.420;6.788;2024-02-16T12:13:39;6.13;;;2.28;;
41927;SDS011;27616;51.420;6.788;2024-02-16T12:16:05;4.40;;;2.22;;
41927;SDS011;27616;51.420;6.788;2024-02-16T12:18:31;6.10;;;2.25;;
41927;SDS011;27616;51.420;6.788;2024-02-16T12:23:24;9.23;;;3.00;;
41927;SDS011;27616;51.420;6.788;2024-02-16T12:25:49;8.30;;;2.60;;
41927;SDS011;27616;51.420;6.788;2024-02-16T12:28:15;5.90;;;3.03;;
41927;SDS011;27616;51.420;6.788;2024-02-16T12:30:41;6.05;;;3.08;;
41927;SDS011;27616;51.420;6.788;2024-02-16T12:33:06;8.52;;;2.90;;
41927;SDS011;27616;51.420;6.788;2024-02-16T12:35:32;8.15;;;3.00;;
41927;SDS011;27616;51.420;6.788;2024-02-16T12:37:59;8.88;;;3.85;;
41927;SDS011;27616;51.420;6.788;2024-02-16T12:40:24;8.32;;;3.00;;
41927;SDS011;27616;51.420;6.788;2024-02-16T12:42:50;7.55;;;2.95;;
41927;SDS011;27616;51.420;6.788;2024-02-16T12:45:16;6.68;;;2.88;;
41927;SDS011;27616;51.420;6.788;2024-02-16T12:47:41;7.90;;;3.38;;
41927;SDS011;27616;51.420;6.788;2024-02-16T12:50:07;12.68;;;4.10;;
41927;SDS011;27616;51.420;6.788;2024-02-16T12:52:33;9.40;;;3.55;;
41927;SDS011;27616;51.420;6.788;2024-02-16T12:55:00;8.85;;;4.00;;
41927;SDS011;27616;51.420;6.788;2024-02-16T12:57:26;8.95;;;3.35;;
41927;SDS011;27616;51.420;6.788;2024-02-16T12:59:53;9.05;;;3.17;;
41927;SDS011;27616;51.420;6.788;2024-02-16T13:02:19;11.73;;;3.65;;
41927;SDS011;27616;51.420;6.788;2024-02-16T13:04:45;7.80;;;3.85;;
41927;SDS011;27616;51.420;6.788;2024-02-16T13:07:10;7.22;;;3.20;;
41927;SDS011;27616;51.420;6.788;2024-02-16T13:09:36;9.05;;;3.47;;
41927;SDS011;27616;51.420;6.788;2024-02-16T13:12:02;6.13;;;3.15;;
41927;SDS011;27616;51.420;6.788;2024-02-16T13:14:28;7.70;;;3.22;;
41927;SDS011;27616;51.420;6.788;2024-02-16T13:16:53;8.20;;;3.70;;
41927;SDS011;27616;51.420;6.788;2024-02-16T13:19:19;8.68;;;3.33;;
41927;SDS011;27616;51.420;6.788;2024-02-16T13:21:44;7.45;;;3.20;;
41927;SDS011;27616;51.420;6.788;2024-02-16T13:24:10;7.93;;;3.53;;
41927;SDS011;27616;51.420;6.788;2024-02-16T13:26:36;8.82;;;3.40;;
41927;SDS011;27616;51.420;6.788;2024-02-16T13:29:01;7.65;;;3.63;;
41927;SDS011;27616;51.420;6.788;2024-02-16T13:31:28;10.52;;;3.30;;
41927;SDS011;27616;51.420;6.788;2024-02-16T13:33:54;5.80;;;3.40;;
41927;SDS011;27616;51.420;6.788;2024-02-16T13:36:20;11.50;;;4.18;;
41927;SDS011;27616;51.420;6.788;2024-02-16T13:38:45;8.18;;;4.20;;
41927;SDS011;27616;51.420;6.788;2024-02-16T13:41:11;12.85;;;4.50;;
41927;SDS011;27616;51.420;6.788;2024-02-16T13:43:37;10.68;;;4.82;;
41927;SDS011;27616;51.420;6.788;2024-02-16T13:46:02;10.98;;;4.50;;
41927;SDS011;27616;51.420;6.788;2024-02-16T13:48:28;12.00;;;5.40;;
41927;SDS011;27616;51.420;6.788;2024-02-16T13:50:55;12.27;;;4.10;;
41927;SDS011;27616;51.420;6.788;2024-02-16T13:53:20;12.55;;;4.65;;
41927;SDS011;27616;51.420;6.788;2024-02-16T13:55:48;14.23;;;4.95;;
41927;SDS011;27616;51.420;6.788;2024-02-16T13:58:14;10.98;;;5.57;;
41927;SDS011;27616;51.420;6.788;2024-02-16T14:00:39;9.82;;;4.75;;
41927;SDS011;27616;51.420;6.788;2024-02-16T14:03:09;12.68;;;4.53;;
41927;SDS011;27616;51.420;6.788;2024-02-16T14:05:37;10.65;;;4.32;;
41927;SDS011;27616;51.420;6.788;2024-02-16T14:08:03;9.93;;;4.25;;
41927;SDS011;27616;51.420;6.788;2024-02-16T14:10:30;11.23;;;4.57;;
41927;SDS011;27616;51.420;6.788;2024-02-16T14:12:58;10.02;;;4.88;;
41927;SDS011;27616;51.420;6.788;2024-02-16T14:15:24;9.90;;;4.07;;
41927;SDS011;27616;51.420;6.788;2024-02-16T14:17:50;10.95;;;5.05;;
41927;SDS011;27616;51.420;6.788;2024-02-16T14:20:15;11.43;;;5.53;;
41927;SDS011;27616;51.420;6.788;2024-02-16T14:22:41;10.25;;;5.05;;
41927;SDS011;27616;51.420;6.788;2024-02-16T14:25:06;12.63;;;4.85;;
41927;SDS011;27616;51.420;6.788;2024-02-16T14:27:35;11.73;;;5.38;;
41927;SDS011;27616;51.420;6.788;2024-02-16T14:30:02;11.02;;;5.35;;
41927;SDS011;27616;51.420;6.788;2024-02-16T14:32:28;11.95;;;5.25;;
41927;SDS011;27616;51.420;6.788;2024-02-16T14:34:53;9.30;;;4.75;;
41927;SDS011;27616;51.420;6.788;2024-02-16T14:37:19;9.10;;;5.32;;
41927;SDS011;27616;51.420;6.788;2024-02-16T14:39:45;8.52;;;4.95;;
41927;SDS011;27616;51.420;6.788;2024-02-16T14:42:11;9.13;;;4.82;;
41927;SDS011;27616;51.420;6.788;2024-02-16T14:44:37;8.27;;;4.70;;